Time;durP1;ratioP1;P1;durP2;ratioP2;P2;SDS_P1;SDS_P2;PMS_P1;PMS_P2;Temp;Humidity;BMP_temperature;BMP_pressure;BME280_temperature;BME280_humidity;BME280_pressure;Samples;Min_cycle;Max_cycle;Signal;HPM_P1;HPM_P2
2021/10/15 00:03:11;;;;;;;15.37;13.93;;;;;;;;;;6211738;28;20221;-52
2021/10/15 00:06:31;;;;;;;17.73;15.90;;;;;;;;;;6206966;28;20225;-52
2021/10/15 00:09:52;;;;;;;15.57;14.07;;;;;;;;;;6209032;28;20320;-55
2021/10/15 00:13:14;;;;;;;16.87;15.27;;;;;;;;;;6209479;28;20229;-55
2021/10/15 00:16:35;;;;;;;16.23;14.50;;;;;;;;;;6212506;28;20229;-51
2021/10/15 00:19:55;;;;;;;16.93;15.27;;;;;;;;;;6209678;28;20689;-52
2021/10/15 00:23:15;;;;;;;15.57;14.03;;;;;;;;;;6210530;28;20194;-52
2021/10/15 00:26:36;;;;;;;17.10;15.50;;;;;;;;;;6210298;28;20228;-53
2021/10/15 00:29:58;;;;;;;16.20;14.50;;;;;;;;;;6210598;28;20230;-52
2021/10/15 00:33:18;;;;;;;16.57;15.07;;;;;;;;;;6214599;28;20587;-54
2021/10/15 00:36:39;;;;;;;16.83;13.93;;;;;;;;;;6216995;28;20225;-50
2021/10/15 00:39:59;;;;;;;17.33;15.53;;;;;;;;;;6212563;28;20229;-54
2021/10/15 00:43:20;;;;;;;17.10;15.17;;;;;;;;;;6214638;28;20197;-51
2021/10/15 00:46:42;;;;;;;21.27;19.03;;;;;;;;;;6210324;28;20225;-49
2021/10/15 00:50:03;;;;;;;18.23;16.53;;;;;;;;;;6211635;28;20229;-53
2021/10/15 00:53:23;;;;;;;17.40;15.70;;;;;;;;;;6214080;28;20217;-53
2021/10/15 00:56:45;;;;;;;18.60;16.80;;;;;;;;;;6212668;28;20501;-49
2021/10/15 01:00:06;;;;;;;18.73;16.87;;;;;;;;;;6214169;28;20229;-50
2021/10/15 01:03:28;;;;;;;18.93;17.13;;;;;;;;;;6219972;28;20197;-52
2021/10/15 01:06:49;;;;;;;17.13;15.33;;;;;;;;;;6204256;28;20257;-53
2021/10/15 01:10:09;;;;;;;19.77;17.87;;;;;;;;;;6211863;28;20233;-52
2021/10/15 01:13:31;;;;;;;20.00;18.20;;;;;;;;;;6212135;28;20233;-50
2021/10/15 01:16:51;;;;;;;20.20;18.50;;;;;;;;;;6217128;28;20241;-54
2021/10/15 01:20:13;;;;;;;19.50;17.80;;;;;;;;;;6211200;28;20234;-52
2021/10/15 01:23:33;;;;;;;22.07;19.97;;;;;;;;;;6218710;28;20201;-50
2021/10/15 01:26:54;;;;;;;23.00;20.90;;;;;;;;;;6210187;28;20233;-51
2021/10/15 01:30:15;;;;;;;21.97;20.07;;;;;;;;;;6212480;28;20605;-54
2021/10/15 01:33:36;;;;;;;23.00;20.70;;;;;;;;;;6208387;28;20906;-50
2021/10/15 01:36:58;;;;;;;26.47;24.07;;;;;;;;;;6209921;28;20260;-51
2021/10/15 01:40:18;;;;;;;25.67;23.27;;;;;;;;;;6207611;28;20750;-52
2021/10/15 01:43:38;;;;;;;24.40;22.13;;;;;;;;;;6210373;28;20217;-52
2021/10/15 01:46:59;;;;;;;26.17;23.67;;;;;;;;;;6209740;28;20221;-51
2021/10/15 01:50:20;;;;;;;24.27;22.07;;;;;;;;;;6204462;28;20822;-51
2021/10/15 01:53:42;;;;;;;25.80;23.10;;;;;;;;;;6210754;28;20478;-52
2021/10/15 01:57:03;;;;;;;26.43;23.93;;;;;;;;;;6208922;28;20318;-52
2021/10/15 02:00:24;;;;;;;23.67;21.40;;;;;;;;;;6211940;28;20237;-51
2021/10/15 02:03:44;;;;;;;23.20;21.00;;;;;;;;;;6215512;28;20205;-55
2021/10/15 02:07:06;;;;;;;25.03;22.40;;;;;;;;;;6206481;28;20280;-51
2021/10/15 02:10:28;;;;;;;23.97;21.70;;;;;;;;;;6204612;28;20534;-54
2021/10/15 02:13:48;;;;;;;26.67;24.13;;;;;;;;;;6209136;28;20197;-52
2021/10/15 02:17:09;;;;;;;24.97;22.30;;;;;;;;;;6206416;28;20233;-54
2021/10/15 02:20:29;;;;;;;25.47;23.20;;;;;;;;;;6209134;28;22406;-54
2021/10/15 02:23:50;;;;;;;26.00;23.50;;;;;;;;;;6208223;28;20205;-53
2021/10/15 02:27:12;;;;;;;24.40;22.10;;;;;;;;;;6207533;28;20241;-54
2021/10/15 02:30:32;;;;;;;21.80;19.63;;;;;;;;;;6207731;28;20339;-52
2021/10/15 02:33:53;;;;;;;23.30;21.33;;;;;;;;;;6208002;28;20197;-52
2021/10/15 02:37:13;;;;;;;23.23;20.63;;;;;;;;;;6208608;28;20232;-55
2021/10/15 02:40:34;;;;;;;21.23;19.00;;;;;;;;;;6208709;28;20585;-54
2021/10/15 02:43:56;;;;;;;20.97;18.93;;;;;;;;;;6208251;28;20288;-52
2021/10/15 02:47:16;;;;;;;20.10;18.17;;;;;;;;;;6206079;28;20233;-52
2021/10/15 02:50:37;;;;;;;19.20;17.30;;;;;;;;;;6205075;28;20257;-52
2021/10/15 02:53:58;;;;;;;19.00;17.17;;;;;;;;;;6204028;28;20213;-52
2021/10/15 02:57:18;;;;;;;19.67;17.87;;;;;;;;;;6206571;28;20249;-51
2021/10/15 03:00:40;;;;;;;19.73;17.77;;;;;;;;;;6203236;28;20229;-54
2021/10/15 03:04:00;;;;;;;18.10;16.40;;;;;;;;;;6208016;28;20229;-55
2021/10/15 03:07:21;;;;;;;17.83;16.13;;;;;;;;;;6206208;28;20234;-49
2021/10/15 03:10:41;;;;;;;20.37;18.27;;;;;;;;;;6206570;28;20241;-50
2021/10/15 03:14:02;;;;;;;16.93;15.33;;;;;;;;;;6211738;28;20194;-53
2021/10/15 03:17:24;;;;;;;17.87;16.00;;;;;;;;;;6204771;28;20562;-51
2021/10/15 03:20:44;;;;;;;19.80;18.00;;;;;;;;;;6203087;28;20698;-51
2021/10/15 03:24:05;;;;;;;20.10;18.00;;;;;;;;;;6213421;28;20217;-49
2021/10/15 03:27:26;;;;;;;19.07;17.27;;;;;;;;;;6213017;28;20224;-53
2021/10/15 03:30:46;;;;;;;20.60;18.63;;;;;;;;;;6205211;28;20549;-52
2021/10/15 03:34:07;;;;;;;21.07;19.03;;;;;;;;;;6210206;28;20190;-52
2021/10/15 03:37:28;;;;;;;19.40;16.83;;;;;;;;;;6206735;28;20229;-55
2021/10/15 03:40:49;;;;;;;20.40;18.53;;;;;;;;;;6206733;28;20245;-52
2021/10/15 03:44:09;;;;;;;20.37;18.57;;;;;;;;;;6210220;28;21050;-52
2021/10/15 03:47:30;;;;;;;21.17;18.93;;;;;;;;;;6203576;28;20229;-52
2021/10/15 03:50:52;;;;;;;19.27;17.43;;;;;;;;;;6206054;28;20497;-54
2021/10/15 03:54:12;;;;;;;19.80;18.10;;;;;;;;;;6207098;28;20201;-50
2021/10/15 03:57:34;;;;;;;20.20;17.87;;;;;;;;;;6205216;28;20228;-51
2021/10/15 04:00:55;;;;;;;18.90;17.10;;;;;;;;;;6205627;28;20225;-50
2021/10/15 04:04:15;;;;;;;19.63;17.73;;;;;;;;;;6208758;28;20216;-52
2021/10/15 04:07:37;;;;;;;18.57;16.63;;;;;;;;;;6202549;28;20213;-49
2021/10/15 04:10:58;;;;;;;17.83;15.93;;;;;;;;;;6204443;28;20236;-51
2021/10/15 04:14:18;;;;;;;18.63;16.93;;;;;;;;;;6207753;28;20209;-50
2021/10/15 04:17:39;;;;;;;18.43;16.50;;;;;;;;;;6205719;28;20229;-50
2021/10/15 04:20:59;;;;;;;18.67;14.57;;;;;;;;;;6205236;28;21088;-51
2021/10/15 04:24:21;;;;;;;15.13;13.53;;;;;;;;;;6200621;28;20320;-52
2021/10/15 04:27:42;;;;;;;15.40;13.83;;;;;;;;;;6202779;28;20217;-52
2021/10/15 04:31:03;;;;;;;18.20;16.23;;;;;;;;;;6204845;28;20593;-54
2021/10/15 04:34:23;;;;;;;16.80;14.33;;;;;;;;;;6209933;28;20209;-51
2021/10/15 04:37:45;;;;;;;15.83;14.23;;;;;;;;;;6210400;28;20213;-52
2021/10/15 04:41:06;;;;;;;16.27;14.67;;;;;;;;;;6212704;28;20221;-54
2021/10/15 04:44:26;;;;;;;16.80;15.10;;;;;;;;;;6216087;28;20296;-53
2021/10/15 04:47:47;;;;;;;16.63;14.90;;;;;;;;;;6214041;28;20622;-54
2021/10/15 04:51:08;;;;;;;16.10;14.43;;;;;;;;;;6205860;28;20712;-55
2021/10/15 04:54:28;;;;;;;17.53;14.10;;;;;;;;;;6211135;28;20225;-50
2021/10/15 04:57:50;;;;;;;15.90;14.07;;;;;;;;;;6202491;28;20550;-54
2021/10/15 05:01:11;;;;;;;17.60;14.17;;;;;;;;;;6203229;28;20260;-50
2021/10/15 05:04:31;;;;;;;14.43;13.13;;;;;;;;;;6205962;28;20244;-54
2021/10/15 05:07:52;;;;;;;16.13;14.43;;;;;;;;;;6205656;28;20237;-50
2021/10/15 05:11:14;;;;;;;16.43;14.83;;;;;;;;;;6204880;28;20327;-54
2021/10/15 05:14:36;;;;;;;18.43;15.13;;;;;;;;;;6205786;28;20202;-51
2021/10/15 05:17:57;;;;;;;17.53;14.73;;;;;;;;;;6206753;28;20237;-52
2021/10/15 05:21:17;;;;;;;17.00;15.27;;;;;;;;;;6207011;28;20237;-52
2021/10/15 05:24:38;;;;;;;17.53;15.83;;;;;;;;;;6210772;28;20248;-53
2021/10/15 05:27:58;;;;;;;19.10;17.27;;;;;;;;;;6210133;28;20651;-53
2021/10/15 05:31:20;;;;;;;18.10;16.40;;;;;;;;;;6207071;28;20217;-52
2021/10/15 05:34:40;;;;;;;16.07;14.37;;;;;;;;;;6210120;28;20584;-52
2021/10/15 05:38:01;;;;;;;17.10;15.47;;;;;;;;;;6209184;28;20564;-53
2021/10/15 05:41:21;;;;;;;18.53;15.20;;;;;;;;;;6207684;28;20233;-54
2021/10/15 05:44:42;;;;;;;18.90;14.93;;;;;;;;;;6209463;28;20233;-52
2021/10/15 05:48:04;;;;;;;16.77;15.23;;;;;;;;;;6199812;28;20194;-53
2021/10/15 05:51:26;;;;;;;17.70;16.03;;;;;;;;;;6205745;28;20233;-54
2021/10/15 05:54:53;;;;;;;16.73;15.03;;;;;;;;;;6204723;28;20204;-55
2021/10/15 06:01:56;;;;;;;16.57;15.03;;;;;;;;;;6207190;28;20511;-53
2021/10/15 06:16:25;;;;;;;19.17;16.67;;;;;;;;;;6203058;28;20229;-53
2021/10/15 06:19:52;;;;;;;19.07;17.10;;;;;;;;;;6199358;28;20237;-56
2021/10/15 06:23:14;;;;;;;18.47;16.87;;;;;;;;;;6199250;28;20237;-53
2021/10/15 06:26:35;;;;;;;18.93;16.70;;;;;;;;;;6196549;28;20264;-55
2021/10/15 06:29:55;;;;;;;20.20;18.27;;;;;;;;;;6203894;28;20699;-54
2021/10/15 06:33:16;;;;;;;18.87;17.07;;;;;;;;;;6199483;28;20283;-55
2021/10/15 06:36:36;;;;;;;17.80;16.20;;;;;;;;;;6196918;28;23751;-52
2021/10/15 06:39:58;;;;;;;19.70;17.80;;;;;;;;;;6197069;28;20229;-52
2021/10/15 06:43:18;;;;;;;19.23;17.30;;;;;;;;;;6199667;28;20533;-52
2021/10/15 06:46:39;;;;;;;21.10;19.00;;;;;;;;;;6197168;28;20240;-50
2021/10/15 06:50:00;;;;;;;18.63;16.97;;;;;;;;;;6198548;28;20229;-55
2021/10/15 06:53:20;;;;;;;12.87;11.67;;;;;;;;;;6209574;28;20190;-53
2021/10/15 06:56:42;;;;;;;8.87;8.07;;;;;;;;;;6205090;28;20918;-53
2021/10/15 07:00:03;;;;;;;6.10;5.37;;;;;;;;;;6201762;28;20244;-57
2021/10/15 07:03:24;;;;;;;3.50;3.20;;;;;;;;;;6202411;28;20533;-49
2021/10/15 07:06:44;;;;;;;5.60;2.87;;;;;;;;;;6204750;28;20617;-54
2021/10/15 07:10:05;;;;;;;2.60;1.70;;;;;;;;;;6207902;28;20229;-53
2021/10/15 07:13:27;;;;;;;2.93;1.60;;;;;;;;;;6205399;28;20320;-54
2021/10/15 07:16:48;;;;;;;1.73;1.20;;;;;;;;;;6199399;28;20230;-53
2021/10/15 07:20:09;;;;;;;1.30;0.90;;;;;;;;;;6200510;28;20316;-51
2021/10/15 07:23:29;;;;;;;1.43;1.20;;;;;;;;;;6204502;28;20222;-56
2021/10/15 07:26:50;;;;;;;1.40;1.20;;;;;;;;;;6202927;28;20536;-55
2021/10/15 07:30:12;;;;;;;2.30;0.77;;;;;;;;;;6204509;28;20233;-49
2021/10/15 07:33:33;;;;;;;1.00;0.90;;;;;;;;;;6208601;28;20239;-54
2021/10/15 07:36:54;;;;;;;2.13;0.77;;;;;;;;;;6188866;28;20232;-52
2021/10/15 07:40:14;;;;;;;1.33;0.93;;;;;;;;;;6206905;28;20229;-54
2021/10/15 07:43:35;;;;;;;2.63;0.67;;;;;;;;;;6205851;28;20216;-54
2021/10/15 07:46:57;;;;;;;1.20;0.97;;;;;;;;;;6208446;28;20225;-54
2021/10/15 07:50:17;;;;;;;1.40;0.80;;;;;;;;;;6215956;28;20610;-53
2021/10/15 07:53:38;;;;;;;3.73;0.80;;;;;;;;;;6208972;28;20450;-50
2021/10/15 07:56:59;;;;;;;1.33;0.70;;;;;;;;;;6204397;28;20221;-52
2021/10/15 08:00:20;;;;;;;1.43;0.80;;;;;;;;;;6203854;28;20229;-56
2021/10/15 08:03:42;;;;;;;1.13;0.90;;;;;;;;;;6208983;28;20244;-52
2021/10/15 08:07:03;;;;;;;1.70;1.00;;;;;;;;;;6211884;28;22055;-56
2021/10/15 08:10:23;;;;;;;1.73;0.97;;;;;;;;;;6215140;28;20249;-51
2021/10/15 08:13:45;;;;;;;1.87;1.07;;;;;;;;;;6219563;28;20189;-52
2021/10/15 08:17:05;;;;;;;4.03;0.83;;;;;;;;;;6217905;28;20237;-48
2021/10/15 08:20:27;;;;;;;1.60;1.07;;;;;;;;;;6214449;28;20515;-56
2021/10/15 08:23:48;;;;;;;2.10;1.00;;;;;;;;;;6220193;28;20213;-57
2021/10/15 08:27:08;;;;;;;3.90;1.27;;;;;;;;;;6214978;28;20236;-55
2021/10/15 08:30:28;;;;;;;2.37;1.20;;;;;;;;;;6212846;28;20244;-56
2021/10/15 08:33:49;;;;;;;1.60;1.03;;;;;;;;;;6222463;28;20186;-52
2021/10/15 08:37:11;;;;;;;1.43;0.90;;;;;;;;;;6215567;28;20233;-57
2021/10/15 08:40:31;;;;;;;3.83;1.27;;;;;;;;;;6212608;28;20318;-54
2021/10/15 08:43:52;;;;;;;4.67;2.17;;;;;;;;;;6216434;28;20229;-55
2021/10/15 08:47:14;;;;;;;3.50;1.83;;;;;;;;;;6219790;28;20233;-53
2021/10/15 08:50:35;;;;;;;5.23;1.33;;;;;;;;;;6220774;28;20237;-55
2021/10/15 08:53:58;;;;;;;5.20;1.63;;;;;;;;;;6216305;28;20210;-52
2021/10/15 08:57:19;;;;;;;3.20;1.53;;;;;;;;;;6215642;28;20221;-58
2021/10/15 09:00:39;;;;;;;3.60;1.30;;;;;;;;;;6214553;28;20307;-55
2021/10/15 09:04:03;;;;;;;2.57;1.33;;;;;;;;;;6222991;28;20216;-51
2021/10/15 09:07:24;;;;;;;4.90;1.53;;;;;;;;;;6214538;28;20229;-53
2021/10/15 09:10:46;;;;;;;3.40;1.57;;;;;;;;;;6216564;28;20674;-55
2021/10/15 09:14:08;;;;;;;2.93;1.80;;;;;;;;;;6216991;28;20190;-50
2021/10/15 09:17:31;;;;;;;4.53;1.37;;;;;;;;;;6209196;28;20233;-54
2021/10/15 09:20:51;;;;;;;4.70;2.00;;;;;;;;;;6216287;28;20233;-51
2021/10/15 09:24:12;;;;;;;4.37;1.40;;;;;;;;;;6221696;28;20225;-53
2021/10/15 09:27:36;;;;;;;3.93;1.90;;;;;;;;;;6216437;28;20238;-57
2021/10/15 09:31:01;;;;;;;4.43;1.80;;;;;;;;;;6216959;28;20229;-53
2021/10/15 09:34:24;;;;;;;4.80;1.53;;;;;;;;;;6218590;28;20205;-54
2021/10/15 09:37:46;;;;;;;4.30;2.53;;;;;;;;;;6218128;28;20222;-52
2021/10/15 09:41:06;;;;;;;4.93;1.53;;;;;;;;;;6217424;28;20225;-54
2021/10/15 09:44:33;;;;;;;3.33;1.37;;;;;;;;;;6217816;28;20229;-49
2021/10/15 09:47:54;;;;;;;4.90;2.20;;;;;;;;;;6210997;28;20256;-53
2021/10/15 09:51:16;;;;;;;4.03;1.70;;;;;;;;;;6216015;28;20222;-54
2021/10/15 09:54:37;;;;;;;8.57;2.07;;;;;;;;;;6216636;28;20198;-53
2021/10/15 09:58:09;;;;;;;3.83;1.83;;;;;;;;;;6215886;28;20189;-53
2021/10/15 10:01:31;;;;;;;3.53;1.60;;;;;;;;;;6213600;28;20225;-54
2021/10/15 10:04:53;;;;;;;7.83;2.13;;;;;;;;;;6215819;28;20205;-53
2021/10/15 10:08:15;;;;;;;4.30;1.93;;;;;;;;;;6217076;28;20190;-54
2021/10/15 10:11:36;;;;;;;6.00;1.93;;;;;;;;;;6207180;28;20551;-54
2021/10/15 10:14:56;;;;;;;11.20;2.75;;;;;;;;;;6208047;28;20241;-53
2021/10/15 10:18:23;;;;;;;5.13;3.50;;;;;;;;;;6204135;28;20305;-55
2021/10/15 10:21:44;;;;;;;7.88;2.70;;;;;;;;;;6206245;28;20229;-53
2021/10/15 10:25:06;;;;;;;8.52;2.13;;;;;;;;;;6210383;28;20230;-57
2021/10/15 10:28:27;;;;;;;6.47;2.03;;;;;;;;;;6209459;28;20241;-54
2021/10/15 10:31:48;;;;;;;8.15;2.17;;;;;;;;;;6204898;28;20261;-52
2021/10/15 10:35:30;;;;;;;4.38;2.13;;;;;;;;;;6210161;28;20695;-56
2021/10/15 10:38:52;;;;;;;9.90;3.00;;;;;;;;;;6208294;28;20202;-55
2021/10/15 10:42:13;;;;;;;6.63;2.50;;;;;;;;;;6214886;28;20225;-52
2021/10/15 10:45:34;;;;;;;5.75;2.33;;;;;;;;;;6203483;28;20257;-55
2021/10/15 10:49:13;;;;;;;6.80;2.10;;;;;;;;;;6206560;28;20225;-55
2021/10/15 10:52:34;;;;;;;4.15;2.35;;;;;;;;;;6206169;28;20518;-55
2021/10/15 10:55:56;;;;;;;8.35;3.00;;;;;;;;;;6206962;28;20224;-55
2021/10/15 10:59:29;;;;;;;9.60;2.78;;;;;;;;;;6209486;28;20198;-54
2021/10/15 11:02:51;;;;;;;4.93;2.08;;;;;;;;;;6205053;28;20217;-53
2021/10/15 11:06:11;;;;;;;12.02;3.70;;;;;;;;;;6208586;28;20229;-53
2021/10/15 11:09:32;;;;;;;6.75;2.38;;;;;;;;;;6204350;28;20198;-54
2021/10/15 11:13:00;;;;;;;10.13;2.85;;;;;;;;;;6205260;28;20899;-52
2021/10/15 11:16:21;;;;;;;13.80;2.88;;;;;;;;;;6204808;28;20232;-55
2021/10/15 11:19:41;;;;;;;5.68;2.53;;;;;;;;;;6202565;28;20201;-55
2021/10/15 11:23:03;;;;;;;6.20;2.40;;;;;;;;;;6209544;28;20222;-53
2021/10/15 11:26:32;;;;;;;7.32;2.55;;;;;;;;;;6214926;28;20221;-50
2021/10/15 11:29:55;;;;;;;9.40;3.40;;;;;;;;;;6209124;28;20516;-54
2021/10/15 11:33:17;;;;;;;6.78;2.70;;;;;;;;;;6218402;28;20278;-50
2021/10/15 11:36:37;;;;;;;5.53;2.40;;;;;;;;;;6214282;28;20220;-54
2021/10/15 11:40:11;;;;;;;8.98;3.55;;;;;;;;;;6212677;28;20233;-55
2021/10/15 11:43:32;;;;;;;9.02;2.50;;;;;;;;;;6216756;28;20308;-54
2021/10/15 11:46:56;;;;;;;7.53;2.55;;;;;;;;;;6210858;28;20229;-52
2021/10/15 11:50:30;;;;;;;7.70;2.88;;;;;;;;;;6210797;28;20494;-53
2021/10/15 11:53:51;;;;;;;4.40;2.28;;;;;;;;;;6210123;28;20201;-57
2021/10/15 11:57:18;;;;;;;6.72;2.83;;;;;;;;;;6210007;28;20233;-55
2021/10/15 12:00:52;;;;;;;6.25;2.17;;;;;;;;;;6207669;28;20225;-53
2021/10/15 12:04:15;;;;;;;3.88;1.40;;;;;;;;;;6215135;28;20256;-55
2021/10/15 12:07:35;;;;;;;4.38;1.08;;;;;;;;;;6214896;28;20236;-52
2021/10/15 12:10:56;;;;;;;5.20;1.85;;;;;;;;;;6211761;28;20764;-55
2021/10/15 12:14:17;;;;;;;2.60;1.35;;;;;;;;;;6210241;28;20189;-52
2021/10/15 12:17:38;;;;;;;3.95;1.30;;;;;;;;;;6211848;28;20226;-55
2021/10/15 12:21:10;;;;;;;6.38;2.70;;;;;;;;;;6214614;28;20607;-54
2021/10/15 12:24:32;;;;;;;3.28;1.92;;;;;;;;;;6208627;28;20221;-53
2021/10/15 12:27:52;;;;;;;3.42;1.50;;;;;;;;;;6213270;28;20316;-55
2021/10/15 12:31:23;;;;;;;6.13;1.70;;;;;;;;;;6208246;28;20233;-54
2021/10/15 12:34:50;;;;;;;8.65;1.75;;;;;;;;;;6201067;28;20310;-54
2021/10/15 12:38:13;;;;;;;4.32;1.83;;;;;;;;;;6207691;28;20610;-55
2021/10/15 12:41:34;;;;;;;6.03;2.55;;;;;;;;;;6456632;23;20221;-51
2021/10/15 12:45:03;;;;;;;6.15;2.15;;;;;;;;;;6160345;28;20239;-55
2021/10/15 12:48:25;;;;;;;4.20;1.92;;;;;;;;;;6155333;28;20211;-50
2021/10/15 12:51:45;;;;;;;4.93;2.17;;;;;;;;;;6159468;28;20259;-54
2021/10/15 12:55:15;;;;;;;4.00;1.50;;;;;;;;;;6156741;28;20226;-54
2021/10/15 12:58:45;;;;;;;7.60;2.72;;;;;;;;;;6162573;28;20214;-52
2021/10/15 13:02:06;;;;;;;7.13;1.90;;;;;;;;;;6158289;28;20691;-53
2021/10/15 13:05:28;;;;;;;9.73;2.63;;;;;;;;;;6162639;28;20239;-54
2021/10/15 13:08:49;;;;;;;7.35;2.30;;;;;;;;;;6162830;28;21376;-51
2021/10/15 13:12:11;;;;;;;4.95;1.98;;;;;;;;;;6167934;28;20239;-53
2021/10/15 13:15:32;;;;;;;6.87;2.83;;;;;;;;;;6140717;28;20226;-54
2021/10/15 13:18:52;;;;;;;11.43;3.57;;;;;;;;;;6159001;28;20602;-51
2021/10/15 13:22:13;;;;;;;9.60;2.53;;;;;;;;;;6164882;28;20226;-53
2021/10/15 13:25:34;;;;;;;6.20;2.30;;;;;;;;;;6162493;28;20231;-53
2021/10/15 13:28:56;;;;;;;10.77;2.80;;;;;;;;;;6161427;28;20203;-53
2021/10/15 13:32:17;;;;;;;8.87;2.97;;;;;;;;;;6160238;28;20223;-53
2021/10/15 13:35:37;;;;;;;9.20;3.22;;;;;;;;;;6162743;28;20716;-53
2021/10/15 13:38:58;;;;;;;8.63;3.08;;;;;;;;;;6167310;28;20520;-53
2021/10/15 13:46:29;;;;;;;9.10;3.45;;;;;;;;;;6140222;28;20235;-49
2021/10/15 13:49:50;;;;;;;10.45;4.13;;;;;;;;;;6145319;28;20489;-48
2021/10/15 13:53:11;;;;;;;10.50;4.03;;;;;;;;;;6141829;28;20212;-52
2021/10/15 13:56:32;;;;;;;11.17;3.10;;;;;;;;;;6142735;28;20590;-53
2021/10/15 13:59:56;;;;;;;10.30;3.10;;;;;;;;;;6145789;28;20204;-49
2021/10/15 14:03:40;;;;;;;8.90;4.53;;;;;;;;;;6143313;28;20456;-51
2021/10/15 14:07:00;;;;;;;7.57;4.40;;;;;;;;;;6141621;28;20232;-51
2021/10/15 14:10:20;;;;;;;10.65;4.00;;;;;;;;;;6141706;28;20258;-51
2021/10/15 14:13:41;;;;;;;9.10;2.63;;;;;;;;;;6147494;28;20490;-53
2021/10/15 14:17:02;;;;;;;8.20;3.58;;;;;;;;;;6145393;28;20231;-53
2021/10/15 14:20:24;;;;;;;8.95;4.38;;;;;;;;;;6144126;28;20226;-48
2021/10/15 14:23:44;;;;;;;6.97;3.03;;;;;;;;;;6138385;28;20605;-49
2021/10/15 14:27:06;;;;;;;7.82;2.80;;;;;;;;;;6141394;28;20243;-55
2021/10/15 14:30:27;;;;;;;8.07;3.38;;;;;;;;;;6142521;28;20234;-54
2021/10/15 14:33:47;;;;;;;9.63;3.60;;;;;;;;;;6153730;28;20196;-52
2021/10/15 14:37:09;;;;;;;9.32;3.47;;;;;;;;;;6149271;28;20227;-54
2021/10/15 14:40:30;;;;;;;8.77;3.30;;;;;;;;;;6147076;28;20228;-50
2021/10/15 14:43:51;;;;;;;10.93;3.33;;;;;;;;;;6148868;28;20212;-51
2021/10/15 14:47:12;;;;;;;13.73;6.07;;;;;;;;;;6142925;28;20321;-53
2021/10/15 14:50:32;;;;;;;9.82;3.80;;;;;;;;;;6138319;28;20230;-54
2021/10/15 14:53:54;;;;;;;9.75;2.70;;;;;;;;;;6150841;28;20204;-56
2021/10/15 14:57:15;;;;;;;13.80;4.87;;;;;;;;;;6146733;28;20624;-55
2021/10/15 15:00:36;;;;;;;11.40;3.57;;;;;;;;;;6145909;28;20227;-53
2021/10/15 15:03:57;;;;;;;14.07;3.37;;;;;;;;;;6145362;28;20200;-53
2021/10/15 15:07:19;;;;;;;12.10;3.90;;;;;;;;;;6138434;28;20353;-54
2021/10/15 15:10:40;;;;;;;6.90;3.33;;;;;;;;;;6139106;28;20590;-54
2021/10/15 15:14:01;;;;;;;14.27;3.20;;;;;;;;;;6142823;28;20208;-49
2021/10/15 15:17:22;;;;;;;6.28;2.50;;;;;;;;;;6143041;28;20625;-52
2021/10/15 15:20:43;;;;;;;7.80;4.37;;;;;;;;;;6142266;28;20231;-57
2021/10/15 15:24:05;;;;;;;10.23;3.60;;;;;;;;;;6149775;28;20275;-54
2021/10/15 15:27:28;;;;;;;7.40;2.90;;;;;;;;;;6138423;28;20326;-53
2021/10/15 15:30:48;;;;;;;11.03;6.23;;;;;;;;;;6143407;28;20231;-55
2021/10/15 15:34:09;;;;;;;696.27;631.83;;;;;;;;;;6143169;28;20206;-56
2021/10/15 15:37:29;;;;;;;1094.63;867.10;;;;;;;;;;6147133;28;20230;-53
2021/10/15 15:40:50;;;;;;;378.60;341.87;;;;;;;;;;6141451;28;20533;-54
2021/10/15 15:44:16;;;;;;;350.10;268.53;;;;;;;;;;6143309;28;20227;-57
2021/10/15 15:47:38;;;;;;;13.33;10.00;;;;;;;;;;6142746;28;20232;-54
2021/10/15 15:50:59;;;;;;;11.93;7.17;;;;;;;;;;6138279;28;20986;-52
2021/10/15 15:54:20;;;;;;;29.63;24.30;;;;;;;;;;6133411;28;21285;-55
2021/10/15 15:57:40;;;;;;;274.70;245.53;;;;;;;;;;6138981;28;20219;-51
2021/10/15 16:01:02;;;;;;;791.20;706.10;;;;;;;;;;6140531;28;20226;-56
2021/10/15 16:04:23;;;;;;;335.70;300.67;;;;;;;;;;6150458;28;20471;-56
2021/10/15 16:07:43;;;;;;;22.67;16.07;;;;;;;;;;6141791;28;20262;-55
2021/10/15 16:11:04;;;;;;;12.60;5.97;;;;;;;;;;6137212;28;20235;-54
2021/10/15 16:14:25;;;;;;;15.40;4.43;;;;;;;;;;6142982;28;20192;-55
2021/10/15 16:17:47;;;;;;;10.60;4.40;;;;;;;;;;6140279;28;20230;-52
2021/10/15 16:21:08;;;;;;;11.33;3.70;;;;;;;;;;6146667;28;20231;-53
2021/10/15 16:24:28;;;;;;;11.33;4.57;;;;;;;;;;6150357;28;20215;-55
2021/10/15 16:27:49;;;;;;;10.90;3.73;;;;;;;;;;6145543;28;20632;-54
2021/10/15 16:31:12;;;;;;;10.27;3.43;;;;;;;;;;6143767;28;20231;-56
2021/10/15 16:34:34;;;;;;;19.07;8.23;;;;;;;;;;6148463;28;20215;-55
2021/10/15 16:37:54;;;;;;;17.57;10.50;;;;;;;;;;6147207;28;20214;-56
2021/10/15 16:41:15;;;;;;;11.40;5.70;;;;;;;;;;6144244;28;20565;-58
2021/10/15 16:44:35;;;;;;;8.60;4.13;;;;;;;;;;6139725;28;20234;-54
2021/10/15 16:47:56;;;;;;;11.60;5.03;;;;;;;;;;6135607;28;20306;-53
2021/10/15 16:51:18;;;;;;;18.97;4.57;;;;;;;;;;6147951;28;20226;-53
2021/10/15 16:54:38;;;;;;;11.37;2.90;;;;;;;;;;6144873;28;20207;-49
2021/10/15 16:57:59;;;;;;;6.90;3.47;;;;;;;;;;6146378;28;20234;-55
2021/10/15 17:01:19;;;;;;;9.03;3.77;;;;;;;;;;6150823;28;20230;-57
2021/10/15 17:04:40;;;;;;;9.20;4.37;;;;;;;;;;6149600;28;20195;-57
2021/10/15 17:08:02;;;;;;;5.97;3.23;;;;;;;;;;6148630;28;20540;-56
2021/10/15 17:11:22;;;;;;;11.23;4.63;;;;;;;;;;6140849;28;20316;-58
2021/10/15 17:14:43;;;;;;;8.70;3.63;;;;;;;;;;6150142;28;20206;-55
2021/10/15 17:18:03;;;;;;;9.87;3.07;;;;;;;;;;6146281;28;20632;-54
2021/10/15 17:21:24;;;;;;;9.03;3.23;;;;;;;;;;6143641;28;20230;-56
2021/10/15 17:24:45;;;;;;;7.67;4.47;;;;;;;;;;6150393;28;20199;-56
2021/10/15 17:28:06;;;;;;;12.23;4.00;;;;;;;;;;6140562;28;20745;-55
2021/10/15 17:31:27;;;;;;;6.33;2.70;;;;;;;;;;6144772;28;20543;-56
2021/10/15 17:34:48;;;;;;;7.73;2.90;;;;;;;;;;6147078;28;20195;-54
2021/10/15 17:38:08;;;;;;;11.80;2.83;;;;;;;;;;6138547;28;20511;-54
2021/10/15 17:41:31;;;;;;;5.27;2.80;;;;;;;;;;6141035;28;20227;-55
2021/10/15 17:44:51;;;;;;;10.20;4.33;;;;;;;;;;6144840;28;20199;-54
2021/10/15 17:48:12;;;;;;;12.67;3.67;;;;;;;;;;6144654;28;20596;-55
2021/10/15 17:51:33;;;;;;;11.53;3.83;;;;;;;;;;6139606;28;20250;-56
2021/10/15 17:54:53;;;;;;;10.20;3.90;;;;;;;;;;6137664;28;20204;-56
2021/10/15 17:58:15;;;;;;;13.20;7.63;;;;;;;;;;6136511;28;20223;-57
2021/10/15 18:01:36;;;;;;;19.10;7.53;;;;;;;;;;6139198;28;20718;-54
2021/10/15 18:04:56;;;;;;;14.17;5.73;;;;;;;;;;6146760;28;20188;-53
2021/10/15 18:08:16;;;;;;;14.23;5.40;;;;;;;;;;6147308;28;20215;-55
2021/10/15 18:11:37;;;;;;;15.50;5.97;;;;;;;;;;6130351;28;20232;-52
2021/10/15 18:14:59;;;;;;;9.40;4.53;;;;;;;;;;6148128;28;20238;-57
2021/10/15 18:18:19;;;;;;;14.27;5.10;;;;;;;;;;6141425;28;20318;-57
2021/10/15 18:21:40;;;;;;;22.60;8.87;;;;;;;;;;6142845;28;20513;-54
2021/10/15 18:25:01;;;;;;;14.87;6.03;;;;;;;;;;6148222;28;20326;-56
2021/10/15 18:28:21;;;;;;;12.83;5.77;;;;;;;;;;6140762;28;20319;-53
2021/10/15 18:31:44;;;;;;;11.47;5.07;;;;;;;;;;6143191;28;20230;-55
2021/10/15 18:35:05;;;;;;;11.60;4.67;;;;;;;;;;6137318;28;20270;-55
2021/10/15 18:38:25;;;;;;;10.50;3.87;;;;;;;;;;6149874;28;20207;-54
2021/10/15 18:41:46;;;;;;;12.60;4.47;;;;;;;;;;6141534;28;20274;-55
2021/10/15 18:45:07;;;;;;;8.03;4.23;;;;;;;;;;6140340;28;20241;-53
2021/10/15 18:48:30;;;;;;;14.33;4.57;;;;;;;;;;6143059;28;20251;-50
2021/10/15 18:51:51;;;;;;;25.60;6.17;;;;;;;;;;6141758;28;20243;-54
2021/10/15 18:55:11;;;;;;;14.57;6.40;;;;;;;;;;6145439;28;20625;-55
2021/10/15 18:58:32;;;;;;;14.20;5.40;;;;;;;;;;6146326;28;20212;-56
2021/10/15 19:01:53;;;;;;;16.53;7.00;;;;;;;;;;6141471;28;20232;-56
2021/10/15 19:05:14;;;;;;;19.53;8.40;;;;;;;;;;6141231;28;20269;-58
2021/10/15 19:08:35;;;;;;;11.27;6.43;;;;;;;;;;6128163;28;20228;-54
2021/10/15 19:11:57;;;;;;;11.13;5.47;;;;;;;;;;6132647;28;20239;-57
2021/10/15 19:15:18;;;;;;;12.63;5.27;;;;;;;;;;6143505;28;20227;-57
2021/10/15 19:18:39;;;;;;;13.10;5.97;;;;;;;;;;6143028;28;20219;-57
2021/10/15 19:22:01;;;;;;;9.40;5.20;;;;;;;;;;6146578;28;20243;-55
2021/10/15 19:25:21;;;;;;;19.03;11.17;;;;;;;;;;6142203;28;20231;-57
2021/10/15 19:28:42;;;;;;;15.23;4.67;;;;;;;;;;6142207;28;20215;-54
2021/10/15 19:32:03;;;;;;;11.20;5.50;;;;;;;;;;6149481;28;20223;-52
2021/10/15 19:35:25;;;;;;;8.63;6.07;;;;;;;;;;6149719;28;20231;-54
2021/10/15 19:38:46;;;;;;;12.73;7.33;;;;;;;;;;6149466;28;20199;-54
2021/10/15 19:42:07;;;;;;;13.50;3.87;;;;;;;;;;6141946;28;20251;-55
2021/10/15 19:45:28;;;;;;;9.90;4.43;;;;;;;;;;6138879;28;20239;-53
2021/10/15 19:48:49;;;;;;;9.83;3.97;;;;;;;;;;6141702;28;20219;-56
2021/10/15 19:52:10;;;;;;;11.90;4.87;;;;;;;;;;6139602;28;20227;-53
2021/10/15 19:55:32;;;;;;;10.80;4.30;;;;;;;;;;6131351;28;20617;-57
2021/10/15 19:58:52;;;;;;;11.67;3.93;;;;;;;;;;6138598;28;20192;-54
2021/10/15 20:02:13;;;;;;;13.00;4.57;;;;;;;;;;6138430;28;20262;-57
2021/10/15 20:05:33;;;;;;;10.93;4.60;;;;;;;;;;6157841;28;20234;-56
2021/10/15 20:08:54;;;;;;;11.33;6.17;;;;;;;;;;6148483;28;20211;-56
2021/10/15 20:12:16;;;;;;;11.70;5.13;;;;;;;;;;6149520;28;20614;-56